sensor_id;sensor_type;location;lat;lon;timestamp;pressure;altitude;pressure_sealevel;temperature;humidity
14041;BME280;7095;51.388;6.196;2022-10-16T00:01:44;99440.56;;;-145.32;100.00
14041;BME280;7095;51.388;6.196;2022-10-16T00:04:13;99440.56;;;-145.32;100.00
14041;BME280;7095;51.388;6.196;2022-10-16T00:06:42;99182.69;;;-145.32;100.00
14041;BME280;7095;51.388;6.196;2022-10-16T00:09:11;98924.81;;;-145.32;100.00
14041;BME280;7095;51.388;6.196;2022-10-16T00:11:40;98924.81;;;-145.32;100.00
14041;BME280;7095;51.388;6.196;2022-10-16T00:14:12;98924.81;;;-145.32;100.00
14041;BME280;7095;51.388;6.196;2022-10-16T00:16:42;98924.81;;;-145.32;100.00
14041;BME280;7095;51.388;6.196;2022-10-16T00:19:11;99440.56;;;-145.32;100.00
14041;BME280;7095;51.388;6.196;2022-10-16T00:21:40;99182.69;;;-145.32;100.00
14041;BME280;7095;51.388;6.196;2022-10-16T00:24:28;98924.81;;;-145.32;100.00
14041;BME280;7095;51.388;6.196;2022-10-16T00:26:56;98924.81;;;-145.32;100.00
14041;BME280;7095;51.388;6.196;2022-10-16T00:29:27;99182.69;;;-145.32;100.00
14041;BME280;7095;51.388;6.196;2022-10-16T00:31:56;99182.69;;;-145.32;100.00
14041;BME280;7095;51.388;6.196;2022-10-16T00:34:26;98924.81;;;-145.32;100.00
14041;BME280;7095;51.388;6.196;2022-10-16T00:36:55;98666.94;;;-145.32;100.00
14041;BME280;7095;51.388;6.196;2022-10-16T00:39:24;98151.31;;;-145.32;100.00
14041;BME280;7095;51.388;6.196;2022-10-16T00:41:53;98151.31;;;-145.32;100.00
14041;BME280;7095;51.388;6.196;2022-10-16T00:44:46;97893.50;;;-145.32;100.00
14041;BME280;7095;51.388;6.196;2022-10-16T00:47:21;97893.50;;;-145.32;100.00
14041;BME280;7095;51.388;6.196;2022-10-16T00:49:55;97893.50;;;-145.32;100.00
14041;BME280;7095;51.388;6.196;2022-10-16T00:52:26;98151.31;;;-145.32;100.00
14041;BME280;7095;51.388;6.196;2022-10-16T00:54:56;98151.31;;;-145.32;100.00
14041;BME280;7095;51.388;6.196;2022-10-16T00:57:25;97893.50;;;-145.32;100.00
14041;BME280;7095;51.388;6.196;2022-10-16T00:59:59;97893.50;;;-145.32;100.00
14041;BME280;7095;51.388;6.196;2022-10-16T01:02:29;98151.31;;;-145.32;100.00
14041;BME280;7095;51.388;6.196;2022-10-16T01:04:58;97893.50;;;-145.32;100.00
14041;BME280;7095;51.388;6.196;2022-10-16T01:07:34;97635.72;;;-145.32;100.00
14041;BME280;7095;51.388;6.196;2022-10-16T01:10:11;97635.72;;;-145.32;100.00
14041;BME280;7095;51.388;6.196;2022-10-16T01:12:45;96604.81;;;-145.32;100.00
14041;BME280;7095;51.388;6.196;2022-10-16T01:15:24;95316.59;;;-145.32;100.00
14041;BME280;7095;51.388;6.196;2022-10-16T01:17:59;94286.38;;;-145.32;100.00
14041;BME280;7095;51.388;6.196;2022-10-16T01:20:30;92999.00;;;-145.32;100.00
14041;BME280;7095;51.388;6.196;2022-10-16T01:23:10;91454.81;;;-145.32;100.00
14041;BME280;7095;51.388;6.196;2022-10-16T01:26:07;91712.13;;;-145.32;100.00
14041;BME280;7095;51.388;6.196;2022-10-16T01:28:42;92484.19;;;-145.32;100.00
14041;BME280;7095;51.388;6.196;2022-10-16T01:31:15;93256.44;;;-145.32;100.00
14041;BME280;7095;51.388;6.196;2022-10-16T01:33:47;94028.84;;;-145.32;100.00
14041;BME280;7095;51.388;6.196;2022-10-16T01:36:25;94801.44;;;-145.32;100.00
14041;BME280;7095;51.388;6.196;2022-10-16T01:39:00;94286.38;;;-145.32;100.00
14041;BME280;7095;51.388;6.196;2022-10-16T01:41:36;94801.44;;;-145.32;100.00
14041;BME280;7095;51.388;6.196;2022-10-16T01:44:11;93513.91;;;-145.32;100.00
14041;BME280;7095;51.388;6.196;2022-10-16T01:46:43;92999.00;;;-145.32;100.00
14041;BME280;7095;51.388;6.196;2022-10-16T01:49:16;92741.59;;;-145.32;100.00
14041;BME280;7095;51.388;6.196;2022-10-16T01:51:50;93256.44;;;-145.32;100.00
14041;BME280;7095;51.388;6.196;2022-10-16T01:54:23;93513.91;;;-145.32;100.00
14041;BME280;7095;51.388;6.196;2022-10-16T01:56:55;94028.84;;;-145.32;100.00
14041;BME280;7095;51.388;6.196;2022-10-16T01:59:28;93513.91;;;-145.32;100.00
14041;BME280;7095;51.388;6.196;2022-10-16T02:02:03;93256.44;;;-145.32;100.00
14041;BME280;7095;51.388;6.196;2022-10-16T02:04:38;92484.19;;;-145.32;100.00
14041;BME280;7095;51.388;6.196;2022-10-16T02:07:08;92226.81;;;-145.32;100.00
14041;BME280;7095;51.388;6.196;2022-10-16T02:09:38;92484.19;;;-145.32;100.00
14041;BME280;7095;51.388;6.196;2022-10-16T02:12:10;92226.81;;;-145.32;100.00
14041;BME280;7095;51.388;6.196;2022-10-16T02:14:43;91969.47;;;-145.32;100.00
14041;BME280;7095;51.388;6.196;2022-10-16T02:17:15;91712.13;;;-145.32;100.00
14041;BME280;7095;51.388;6.196;2022-10-16T02:19:45;91712.13;;;-145.32;100.00
14041;BME280;7095;51.388;6.196;2022-10-16T02:22:19;91712.13;;;-145.32;100.00
14041;BME280;7095;51.388;6.196;2022-10-16T02:24:54;91454.81;;;-145.32;100.00
14041;BME280;7095;51.388;6.196;2022-10-16T02:27:29;91969.47;;;-145.32;100.00
14041;BME280;7095;51.388;6.196;2022-10-16T02:30:10;91712.13;;;-145.32;100.00
14041;BME280;7095;51.388;6.196;2022-10-16T02:32:43;91712.13;;;-145.32;100.00
14041;BME280;7095;51.388;6.196;2022-10-16T02:35:15;91712.13;;;-145.32;100.00
14041;BME280;7095;51.388;6.196;2022-10-16T02:37:46;91969.47;;;-145.32;100.00
14041;BME280;7095;51.388;6.196;2022-10-16T02:40:15;91712.13;;;-145.32;100.00
14041;BME280;7095;51.388;6.196;2022-10-16T02:42:51;92226.81;;;-145.32;100.00
14041;BME280;7095;51.388;6.196;2022-10-16T02:45:22;91969.47;;;-145.32;100.00
14041;BME280;7095;51.388;6.196;2022-10-16T02:47:52;91712.13;;;-145.32;100.00
14041;BME280;7095;51.388;6.196;2022-10-16T02:50:20;91712.13;;;-145.32;100.00
14041;BME280;7095;51.388;6.196;2022-10-16T02:52:49;91712.13;;;-145.32;100.00
14041;BME280;7095;51.388;6.196;2022-10-16T02:55:17;92226.81;;;-145.32;100.00
14041;BME280;7095;51.388;6.196;2022-10-16T02:57:46;92484.19;;;-145.32;100.00
14041;BME280;7095;51.388;6.196;2022-10-16T03:00:17;92999.00;;;-145.32;100.00
14041;BME280;7095;51.388;6.196;2022-10-16T03:02:47;92999.00;;;-145.32;100.00
14041;BME280;7095;51.388;6.196;2022-10-16T03:05:16;92999.00;;;-145.32;100.00
14041;BME280;7095;51.388;6.196;2022-10-16T03:07:45;92741.59;;;-145.32;100.00
14041;BME280;7095;51.388;6.196;2022-10-16T03:10:13;93256.44;;;-145.32;100.00
14041;BME280;7095;51.388;6.196;2022-10-16T03:12:42;93256.44;;;-145.32;100.00
14041;BME280;7095;51.388;6.196;2022-10-16T03:15:10;93513.91;;;-145.32;100.00
14041;BME280;7095;51.388;6.196;2022-10-16T03:17:39;93771.38;;;-145.32;100.00
14041;BME280;7095;51.388;6.196;2022-10-16T03:20:09;93256.44;;;-145.32;100.00
14041;BME280;7095;51.388;6.196;2022-10-16T03:22:38;93256.44;;;-145.32;100.00
14041;BME280;7095;51.388;6.196;2022-10-16T03:25:07;92999.00;;;-145.32;100.00
14041;BME280;7095;51.388;6.196;2022-10-16T03:27:36;92741.59;;;-145.32;100.00
14041;BME280;7095;51.388;6.196;2022-10-16T03:30:06;91969.47;;;-145.32;100.00
14041;BME280;7095;51.388;6.196;2022-10-16T03:32:35;91712.13;;;-145.32;100.00
14041;BME280;7095;51.388;6.196;2022-10-16T03:35:04;91712.13;;;-145.32;100.00
14041;BME280;7095;51.388;6.196;2022-10-16T03:37:35;91969.47;;;-145.32;100.00
14041;BME280;7095;51.388;6.196;2022-10-16T03:40:05;91712.13;;;-145.32;100.00
14041;BME280;7095;51.388;6.196;2022-10-16T03:42:33;91969.47;;;-145.32;100.00
14041;BME280;7095;51.388;6.196;2022-10-16T03:45:03;92226.81;;;-145.32;100.00
14041;BME280;7095;51.388;6.196;2022-10-16T03:47:32;92226.81;;;-145.32;100.00
14041;BME280;7095;51.388;6.196;2022-10-16T03:50:01;91969.47;;;-145.32;100.00
14041;BME280;7095;51.388;6.196;2022-10-16T03:52:29;92226.81;;;-145.32;100.00
14041;BME280;7095;51.388;6.196;2022-10-16T03:55:00;92484.19;;;-145.32;100.00
14041;BME280;7095;51.388;6.196;2022-10-16T03:57:28;92484.19;;;-145.32;100.00
14041;BME280;7095;51.388;6.196;2022-10-16T03:59:57;92741.59;;;-145.32;100.00
14041;BME280;7095;51.388;6.196;2022-10-16T04:02:25;92226.81;;;-145.32;100.00
14041;BME280;7095;51.388;6.196;2022-10-16T04:04:54;92226.81;;;-145.32;100.00
14041;BME280;7095;51.388;6.196;2022-10-16T04:07:22;92484.19;;;-145.32;100.00
14041;BME280;7095;51.388;6.196;2022-10-16T04:09:52;92999.00;;;-145.32;100.00
14041;BME280;7095;51.388;6.196;2022-10-16T04:12:26;92741.59;;;-145.32;100.00
14041;BME280;7095;51.388;6.196;2022-10-16T04:14:55;92484.19;;;-145.32;100.00
14041;BME280;7095;51.388;6.196;2022-10-16T04:17:23;91712.13;;;-145.32;100.00
14041;BME280;7095;51.388;6.196;2022-10-16T04:19:52;92484.19;;;-145.32;100.00
14041;BME280;7095;51.388;6.196;2022-10-16T04:22:21;92484.19;;;-145.32;100.00
14041;BME280;7095;51.388;6.196;2022-10-16T04:24:49;92484.19;;;-145.32;100.00
14041;BME280;7095;51.388;6.196;2022-10-16T04:27:18;92226.81;;;-145.32;100.00
14041;BME280;7095;51.388;6.196;2022-10-16T04:29:49;91969.47;;;-145.32;100.00
14041;BME280;7095;51.388;6.196;2022-10-16T04:32:18;92226.81;;;-145.32;100.00
14041;BME280;7095;51.388;6.196;2022-10-16T04:34:47;92741.59;;;-145.32;100.00
14041;BME280;7095;51.388;6.196;2022-10-16T04:37:15;92741.59;;;-145.32;100.00
14041;BME280;7095;51.388;6.196;2022-10-16T04:39:44;92999.00;;;-145.32;100.00
14041;BME280;7095;51.388;6.196;2022-10-16T04:42:13;92999.00;;;-145.32;100.00
14041;BME280;7095;51.388;6.196;2022-10-16T04:44:42;92484.19;;;-145.32;100.00
14041;BME280;7095;51.388;6.196;2022-10-16T04:47:12;92484.19;;;-145.32;100.00
14041;BME280;7095;51.388;6.196;2022-10-16T04:49:41;92226.81;;;-145.32;100.00
14041;BME280;7095;51.388;6.196;2022-10-16T04:52:10;92484.19;;;-145.32;100.00
14041;BME280;7095;51.388;6.196;2022-10-16T04:54:39;91969.47;;;-145.32;100.00
14041;BME280;7095;51.388;6.196;2022-10-16T04:57:08;91712.13;;;-145.32;100.00
14041;BME280;7095;51.388;6.196;2022-10-16T04:59:36;91197.50;;;-145.32;100.00
14041;BME280;7095;51.388;6.196;2022-10-16T05:02:05;91454.81;;;-145.32;100.00
14041;BME280;7095;51.388;6.196;2022-10-16T05:04:35;90682.97;;;-145.32;100.00
14041;BME280;7095;51.388;6.196;2022-10-16T05:07:04;90168.50;;;-145.32;100.00
14041;BME280;7095;51.388;6.196;2022-10-16T05:09:33;90682.97;;;-145.32;100.00
14041;BME280;7095;51.388;6.196;2022-10-16T05:12:02;89654.13;;;-145.32;100.00
14041;BME280;7095;51.388;6.196;2022-10-16T05:14:31;89139.81;;;-145.32;100.00
14041;BME280;7095;51.388;6.196;2022-10-16T05:17:00;88882.69;;;-145.32;100.00
14041;BME280;7095;51.388;6.196;2022-10-16T05:19:28;88368.50;;;-145.32;100.00
14041;BME280;7095;51.388;6.196;2022-10-16T05:21:58;88368.50;;;-145.32;100.00
14041;BME280;7095;51.388;6.196;2022-10-16T05:24:27;87597.34;;;-145.32;100.00
14041;BME280;7095;51.388;6.196;2022-10-16T05:26:57;87083.34;;;-145.32;100.00
14041;BME280;7095;51.388;6.196;2022-10-16T05:29:25;86826.34;;;-145.32;100.00
14041;BME280;7095;51.388;6.196;2022-10-16T05:31:54;86055.56;;;-145.32;100.00
14041;BME280;7095;51.388;6.196;2022-10-16T05:34:22;86569.41;;;-145.32;100.00
14041;BME280;7095;51.388;6.196;2022-10-16T05:36:51;85798.66;;;-145.32;100.00
14041;BME280;7095;51.388;6.196;2022-10-16T05:39:21;85284.91;;;-145.32;100.00
14041;BME280;7095;51.388;6.196;2022-10-16T05:41:49;84514.44;;;-145.32;100.00
14041;BME280;7095;51.388;6.196;2022-10-16T05:44:19;83487.44;;;-145.32;100.00
14041;BME280;7095;51.388;6.196;2022-10-16T05:46:48;83230.72;;;-145.32;100.00
14041;BME280;7095;51.388;6.196;2022-10-16T05:49:16;82460.72;;;-145.32;100.00
14041;BME280;7095;51.388;6.196;2022-10-16T05:51:45;82204.09;;;-145.32;100.00
14041;BME280;7095;51.388;6.196;2022-10-16T05:54:14;82460.72;;;-145.32;100.00
14041;BME280;7095;51.388;6.196;2022-10-16T05:56:44;81947.50;;;-145.32;100.00
14041;BME280;7095;51.388;6.196;2022-10-16T05:59:12;81947.50;;;-145.32;100.00
14041;BME280;7095;51.388;6.196;2022-10-16T06:01:41;81947.50;;;-145.32;100.00
14041;BME280;7095;51.388;6.196;2022-10-16T06:04:10;82204.09;;;-145.32;100.00
14041;BME280;7095;51.388;6.196;2022-10-16T06:06:39;81947.50;;;-145.32;100.00
14041;BME280;7095;51.388;6.196;2022-10-16T06:09:08;81947.50;;;-145.32;100.00
14041;BME280;7095;51.388;6.196;2022-10-16T06:11:37;81690.91;;;-145.32;100.00
14041;BME280;7095;51.388;6.196;2022-10-16T06:14:08;81690.91;;;-145.32;100.00
14041;BME280;7095;51.388;6.196;2022-10-16T06:16:37;82460.72;;;-145.32;100.00
14041;BME280;7095;51.388;6.196;2022-10-16T06:19:06;81947.50;;;-145.32;100.00
14041;BME280;7095;51.388;6.196;2022-10-16T06:21:35;82204.09;;;-145.32;100.00
14041;BME280;7095;51.388;6.196;2022-10-16T06:24:04;82204.09;;;-145.32;100.00
14041;BME280;7095;51.388;6.196;2022-10-16T06:26:33;82204.09;;;-145.32;100.00
14041;BME280;7095;51.388;6.196;2022-10-16T06:29:01;82204.09;;;-145.32;100.00
14041;BME280;7095;51.388;6.196;2022-10-16T06:31:32;81947.50;;;-145.32;100.00
14041;BME280;7095;51.388;6.196;2022-10-16T06:34:01;82204.09;;;-145.32;100.00
14041;BME280;7095;51.388;6.196;2022-10-16T06:36:31;81690.91;;;-145.32;100.00
14041;BME280;7095;51.388;6.196;2022-10-16T06:39:00;82204.09;;;-145.32;100.00
14041;BME280;7095;51.388;6.196;2022-10-16T06:41:29;81947.50;;;-145.32;100.00
14041;BME280;7095;51.388;6.196;2022-10-16T06:44:06;81947.50;;;-145.32;100.00
14041;BME280;7095;51.388;6.196;2022-10-16T06:46:38;82204.09;;;-145.32;100.00
14041;BME280;7095;51.388;6.196;2022-10-16T06:49:07;82460.72;;;-145.32;100.00
14041;BME280;7095;51.388;6.196;2022-10-16T06:51:36;82717.38;;;-145.32;100.00
14041;BME280;7095;51.388;6.196;2022-10-16T06:54:09;83230.72;;;-145.32;100.00
14041;BME280;7095;51.388;6.196;2022-10-16T06:56:38;82717.38;;;-145.32;100.00
14041;BME280;7095;51.388;6.196;2022-10-16T06:59:06;82717.38;;;-145.32;100.00
14041;BME280;7095;51.388;6.196;2022-10-16T07:01:35;83487.44;;;-145.32;100.00
14041;BME280;7095;51.388;6.196;2022-10-16T07:04:05;83487.44;;;-145.32;100.00
14041;BME280;7095;51.388;6.196;2022-10-16T07:06:34;83744.16;;;-145.32;100.00
14041;BME280;7095;51.388;6.196;2022-10-16T07:09:05;84257.66;;;-145.32;100.00
14041;BME280;7095;51.388;6.196;2022-10-16T07:11:34;84514.44;;;-145.32;100.00
14041;BME280;7095;51.388;6.196;2022-10-16T07:14:04;84771.25;;;-145.32;100.00
14041;BME280;7095;51.388;6.196;2022-10-16T07:16:33;85284.91;;;-145.32;100.00
14041;BME280;7095;51.388;6.196;2022-10-16T07:19:02;85284.91;;;-145.32;100.00
14041;BME280;7095;51.388;6.196;2022-10-16T07:21:35;85541.78;;;-145.32;100.00
14041;BME280;7095;51.388;6.196;2022-10-16T07:24:05;85284.91;;;-145.32;100.00
14041;BME280;7095;51.388;6.196;2022-10-16T07:26:35;85284.91;;;-145.32;100.00
14041;BME280;7095;51.388;6.196;2022-10-16T07:29:08;85028.06;;;-145.32;100.00
14041;BME280;7095;51.388;6.196;2022-10-16T07:31:43;84771.25;;;-145.32;100.00
14041;BME280;7095;51.388;6.196;2022-10-16T07:34:13;84514.44;;;-145.32;100.00
14041;BME280;7095;51.388;6.196;2022-10-16T07:36:46;84257.66;;;-145.32;100.00
14041;BME280;7095;51.388;6.196;2022-10-16T07:39:15;82974.03;;;-145.32;100.00
14041;BME280;7095;51.388;6.196;2022-10-16T07:41:44;81947.50;;;-145.32;100.00
14041;BME280;7095;51.388;6.196;2022-10-16T07:44:13;82204.09;;;-145.32;100.00
14041;BME280;7095;51.388;6.196;2022-10-16T07:46:41;81177.78;;;-145.32;100.00
14041;BME280;7095;51.388;6.196;2022-10-16T07:49:10;80921.25;;;-145.32;100.00
14041;BME280;7095;51.388;6.196;2022-10-16T07:51:38;78613.28;;;-145.32;100.00
14041;BME280;7095;51.388;6.196;2022-10-16T07:54:09;77588.03;;;-145.32;100.00
14041;BME280;7095;51.388;6.196;2022-10-16T07:56:38;78100.63;;;-145.32;100.00
14041;BME280;7095;51.388;6.196;2022-10-16T07:59:10;75026.22;;;-145.32;100.00
14041;BME280;7095;51.388;6.196;2022-10-16T08:01:42;74514.09;;;-145.32;100.00
14041;BME280;7095;51.388;6.196;2022-10-16T08:04:11;69608.72;;;-145.32;100.00
14041;BME280;7095;51.388;6.196;2022-10-16T08:06:40;69660.66;;;-145.32;100.00
14041;BME280;7095;51.388;6.196;2022-10-16T08:09:10;68925.66;;;-145.32;100.00
14041;BME280;7095;51.388;6.196;2022-10-16T08:11:39;67248.50;;;-145.32;100.00
14041;BME280;7095;51.388;6.196;2022-10-16T08:14:08;68356.53;;;-145.32;100.00
14041;BME280;7095;51.388;6.196;2022-10-16T08:16:37;67699.66;;;-145.32;100.00
14041;BME280;7095;51.388;6.196;2022-10-16T08:19:06;65282.91;;;-145.32;100.00
14041;BME280;7095;51.388;6.196;2022-10-16T08:21:35;63661.38;;;-145.32;100.00
14041;BME280;7095;51.388;6.196;2022-10-16T08:24:04;62664.50;;;-145.32;100.00
14041;BME280;7095;51.388;6.196;2022-10-16T08:26:34;61137.88;;;-145.32;100.00
14041;BME280;7095;51.388;6.196;2022-10-16T08:29:03;61472.63;;;-145.32;100.00
14041;BME280;7095;51.388;6.196;2022-10-16T08:31:32;58942.81;;;-145.32;100.00
14041;BME280;7095;51.388;6.196;2022-10-16T08:34:01;57989.13;;;-145.32;100.00
14041;BME280;7095;51.388;6.196;2022-10-16T08:36:30;57746.28;;;-145.32;100.00
14041;BME280;7095;51.388;6.196;2022-10-16T08:38:59;57483.53;;;-145.32;100.00
14041;BME280;7095;51.388;6.196;2022-10-16T08:44:58;56152.22;;;-145.32;100.00
14041;BME280;7095;51.388;6.196;2022-10-16T08:47:39;56613.84;;;-145.32;100.00
14041;BME280;7095;51.388;6.196;2022-10-16T08:50:12;56558.13;;;-145.32;100.00
14041;BME280;7095;51.388;6.196;2022-10-16T08:52:43;55903.53;;;-145.32;100.00
14041;BME280;7095;51.388;6.196;2022-10-16T08:55:28;55825.94;;;-145.32;100.00
14041;BME280;7095;51.388;6.196;2022-10-16T08:57:59;55718.50;;;-145.32;100.00
14041;BME280;7095;51.388;6.196;2022-10-16T09:00:28;55611.09;;;-145.32;100.00
14041;BME280;7095;51.388;6.196;2022-10-16T09:03:05;55463.88;;;-145.32;100.00
14041;BME280;7095;51.388;6.196;2022-10-16T09:05:57;54897.00;;;-145.32;100.00
14041;BME280;7095;51.388;6.196;2022-10-16T09:08:37;54835.34;;;-145.32;100.00
14041;BME280;7095;51.388;6.196;2022-10-16T09:11:14;54654.38;;;-145.32;100.00
14041;BME280;7095;51.388;6.196;2022-10-16T09:13:53;54688.16;;;-145.32;100.00
14041;BME280;7095;51.388;6.196;2022-10-16T09:16:29;54678.22;;;-145.32;100.00
14041;BME280;7095;51.388;6.196;2022-10-16T09:19:03;54602.66;;;-145.32;100.00
14041;BME280;7095;51.388;6.196;2022-10-16T09:21:40;54517.16;;;-145.32;100.00
14041;BME280;7095;51.388;6.196;2022-10-16T09:24:11;54485.31;;;-145.32;100.00
14041;BME280;7095;51.388;6.196;2022-10-16T09:26:41;54475.38;;;-145.32;100.00
14041;BME280;7095;51.388;6.196;2022-10-16T09:29:11;54465.44;;;-145.32;100.00
14041;BME280;7095;51.388;6.196;2022-10-16T09:31:44;54421.69;;;-145.32;100.00
14041;BME280;7095;51.388;6.196;2022-10-16T09:34:21;54350.09;;;-145.32;100.00
14041;BME280;7095;51.388;6.196;2022-10-16T09:36:56;54298.41;;;-145.32;100.00
14041;BME280;7095;51.388;6.196;2022-10-16T09:39:25;54175.13;;;-145.32;100.00
14041;BME280;7095;51.388;6.196;2022-10-16T09:41:55;54125.41;;;-145.32;100.00
14041;BME280;7095;51.388;6.196;2022-10-16T09:44:28;54059.78;;;-145.32;100.00
14041;BME280;7095;51.388;6.196;2022-10-16T09:47:02;54051.81;;;-145.32;100.00
14041;BME280;7095;51.388;6.196;2022-10-16T09:49:32;54067.75;;;-145.32;100.00
14041;BME280;7095;51.388;6.196;2022-10-16T09:52:05;54039.91;;;-145.32;100.00
14041;BME280;7095;51.388;6.196;2022-10-16T09:54:34;53992.19;;;-145.32;100.00
14041;BME280;7095;51.388;6.196;2022-10-16T09:57:07;53916.63;;;-145.32;100.00
14041;BME280;7095;51.388;6.196;2022-10-16T09:59:47;53936.50;;;-145.32;100.00
14041;BME280;7095;51.388;6.196;2022-10-16T10:02:17;53920.59;;;-145.32;100.00
14041;BME280;7095;51.388;6.196;2022-10-16T10:04:50;53884.81;;;-145.32;100.00
14041;BME280;7095;51.388;6.196;2022-10-16T10:07:25;53803.28;;;-145.32;100.00
14041;BME280;7095;51.388;6.196;2022-10-16T10:09:56;53821.19;;;-145.32;100.00
14041;BME280;7095;51.388;6.196;2022-10-16T10:12:26;53787.38;;;-145.32;100.00
14041;BME280;7095;51.388;6.196;2022-10-16T10:15:04;53743.66;;;-145.32;100.00
14041;BME280;7095;51.388;6.196;2022-10-16T10:17:33;53713.81;;;-145.32;100.00
14041;BME280;7095;51.388;6.196;2022-10-16T10:20:21;53697.91;;;-145.32;100.00
14041;BME280;7095;51.388;6.196;2022-10-16T10:22:50;53654.19;;;-145.32;100.00
14041;BME280;7095;51.388;6.196;2022-10-16T10:25:27;53678.03;;;-145.32;100.00
14041;BME280;7095;51.388;6.196;2022-10-16T10:28:16;53684.00;;;-145.32;100.00
14041;BME280;7095;51.388;6.196;2022-10-16T10:30:54;53652.19;;;-145.32;100.00
14041;BME280;7095;51.388;6.196;2022-10-16T10:33:31;53689.97;;;-145.32;100.00
14041;BME280;7095;51.388;6.196;2022-10-16T10:36:14;53648.22;;;-145.32;100.00
14041;BME280;7095;51.388;6.196;2022-10-16T10:38:49;53636.28;;;-145.32;100.00
14041;BME280;7095;51.388;6.196;2022-10-16T10:44:56;53644.22;;;-145.32;100.00
14041;BME280;7095;51.388;6.196;2022-10-16T10:47:35;53658.16;;;-145.32;100.00
14041;BME280;7095;51.388;6.196;2022-10-16T10:50:18;53628.31;;;-145.32;100.00
14041;BME280;7095;51.388;6.196;2022-10-16T10:52:56;53602.47;;;-145.32;100.00
14041;BME280;7095;51.388;6.196;2022-10-16T10:55:32;53626.34;;;-145.32;100.00
14041;BME280;7095;51.388;6.196;2022-10-16T11:01:04;53610.44;;;-145.32;100.00
14041;BME280;7095;51.388;6.196;2022-10-16T11:03:46;53640.25;;;-145.32;100.00
14041;BME280;7095;51.388;6.196;2022-10-16T11:06:26;53622.38;;;-145.32;100.00
14041;BME280;7095;51.388;6.196;2022-10-16T11:09:00;53616.41;;;-145.32;100.00
14041;BME280;7095;51.388;6.196;2022-10-16T11:11:35;53634.28;;;-145.32;100.00
14041;BME280;7095;51.388;6.196;2022-10-16T11:14:14;53598.50;;;-145.32;100.00
14041;BME280;7095;51.388;6.196;2022-10-16T11:16:49;53594.53;;;-145.32;100.00
14041;BME280;7095;51.388;6.196;2022-10-16T11:19:31;53604.47;;;-145.32;100.00
14041;BME280;7095;51.388;6.196;2022-10-16T11:22:07;53582.59;;;-145.32;100.00
14041;BME280;7095;51.388;6.196;2022-10-16T11:24:44;53562.72;;;-145.32;100.00
14041;BME280;7095;51.388;6.196;2022-10-16T11:27:17;53566.69;;;-145.32;100.00
14041;BME280;7095;51.388;6.196;2022-10-16T11:29:50;53580.63;;;-145.32;100.00
14041;BME280;7095;51.388;6.196;2022-10-16T11:32:27;53606.47;;;-145.32;100.00
14041;BME280;7095;51.388;6.196;2022-10-16T11:35:07;53582.59;;;-145.32;100.00
14041;BME280;7095;51.388;6.196;2022-10-16T11:37:41;53590.56;;;-145.32;100.00
14041;BME280;7095;51.388;6.196;2022-10-16T11:40:21;53572.66;;;-145.32;100.00
14041;BME280;7095;51.388;6.196;2022-10-16T11:42:55;53570.69;;;-145.32;100.00
14041;BME280;7095;51.388;6.196;2022-10-16T11:45:32;53566.69;;;-145.32;100.00
14041;BME280;7095;51.388;6.196;2022-10-16T11:48:12;53554.78;;;-145.32;100.00
14041;BME280;7095;51.388;6.196;2022-10-16T11:50:49;53534.88;;;-145.32;100.00
14041;BME280;7095;51.388;6.196;2022-10-16T11:53:24;53491.16;;;-145.32;100.00
14041;BME280;7095;51.388;6.196;2022-10-16T11:55:58;53522.97;;;-145.32;100.00
14041;BME280;7095;51.388;6.196;2022-10-16T11:58:30;53507.06;;;-145.32;100.00
14041;BME280;7095;51.388;6.196;2022-10-16T12:01:15;53477.22;;;-145.32;100.00
14041;BME280;7095;51.388;6.196;2022-10-16T12:03:50;53520.97;;;-145.32;100.00
14041;BME280;7095;51.388;6.196;2022-10-16T12:06:31;53507.06;;;-145.32;100.00
14041;BME280;7095;51.388;6.196;2022-10-16T12:09:03;53509.03;;;-145.32;100.00
14041;BME280;7095;51.388;6.196;2022-10-16T12:11:35;53493.13;;;-145.32;100.00
14041;BME280;7095;51.388;6.196;2022-10-16T12:14:07;53507.06;;;-145.32;100.00
14041;BME280;7095;51.388;6.196;2022-10-16T12:16:54;53503.06;;;-145.32;100.00
14041;BME280;7095;51.388;6.196;2022-10-16T12:19:28;53524.94;;;-145.32;100.00
14041;BME280;7095;51.388;6.196;2022-10-16T12:22:00;53487.19;;;-145.32;100.00
14041;BME280;7095;51.388;6.196;2022-10-16T12:24:36;53483.19;;;-145.32;100.00
14041;BME280;7095;51.388;6.196;2022-10-16T12:27:06;53471.28;;;-145.32;100.00
14041;BME280;7095;51.388;6.196;2022-10-16T12:29:54;53483.19;;;-145.32;100.00
14041;BME280;7095;51.388;6.196;2022-10-16T12:32:30;53471.28;;;-145.32;100.00
14041;BME280;7095;51.388;6.196;2022-10-16T12:35:18;53457.34;;;-145.32;100.00
14041;BME280;7095;51.388;6.196;2022-10-16T12:37:50;53455.38;;;-145.32;100.00
14041;BME280;7095;51.388;6.196;2022-10-16T12:40:28;53445.44;;;-145.32;100.00
14041;BME280;7095;51.388;6.196;2022-10-16T12:42:58;53391.75;;;-145.32;100.00
14041;BME280;7095;51.388;6.196;2022-10-16T12:45:29;53431.50;;;-145.32;100.00
14041;BME280;7095;51.388;6.196;2022-10-16T12:48:01;53403.69;;;-145.32;100.00
14041;BME280;7095;51.388;6.196;2022-10-16T12:50:33;53421.56;;;-145.32;100.00
14041;BME280;7095;51.388;6.196;2022-10-16T12:53:17;53387.78;;;-145.32;100.00
14041;BME280;7095;51.388;6.196;2022-10-16T12:55:56;53336.09;;;-145.32;100.00
14041;BME280;7095;51.388;6.196;2022-10-16T12:58:37;53377.84;;;-145.32;99.31
14041;BME280;7095;51.388;6.196;2022-10-16T13:01:20;53375.84;;;-145.32;99.93
14041;BME280;7095;51.388;6.196;2022-10-16T13:06:59;53395.72;;;-145.32;100.00
14041;BME280;7095;51.388;6.196;2022-10-16T13:09:46;53423.56;;;-145.32;100.00
14041;BME280;7095;51.388;6.196;2022-10-16T13:12:54;53391.75;;;-145.32;100.00
14041;BME280;7095;51.388;6.196;2022-10-16T13:18:21;53455.38;;;-145.32;100.00
14041;BME280;7095;51.388;6.196;2022-10-16T13:21:05;53475.25;;;-145.32;100.00
14041;BME280;7095;51.388;6.196;2022-10-16T13:23:40;53461.31;;;-145.32;100.00